sensor_id;sensor_type;location;lat;lon;timestamp;P1;durP1;ratioP1;P2;durP2;ratioP2
69410;SDS011;56604;48.652;9.194;2022-07-10T00:00:35;7.53;;;5.60;;
69410;SDS011;56604;48.652;9.194;2022-07-10T00:03:03;5.47;;;4.90;;
69410;SDS011;56604;48.652;9.194;2022-07-10T00:05:30;5.50;;;4.93;;
69410;SDS011;56604;48.652;9.194;2022-07-10T00:07:56;8.73;;;5.30;;
69410;SDS011;56604;48.652;9.194;2022-07-10T00:10:21;5.43;;;4.93;;
69410;SDS011;56604;48.652;9.194;2022-07-10T00:12:47;5.50;;;5.00;;
69410;SDS011;56604;48.652;9.194;2022-07-10T00:15:14;8.03;;;5.10;;
69410;SDS011;56604;48.652;9.194;2022-07-10T00:17:40;12.27;;;5.07;;
69410;SDS011;56604;48.652;9.194;2022-07-10T00:20:06;5.97;;;5.47;;
69410;SDS011;56604;48.652;9.194;2022-07-10T00:22:35;12.70;;;5.07;;
69410;SDS011;56604;48.652;9.194;2022-07-10T00:25:03;5.23;;;4.83;;
69410;SDS011;56604;48.652;9.194;2022-07-10T00:27:29;6.20;;;4.80;;
69410;SDS011;56604;48.652;9.194;2022-07-10T00:29:54;5.23;;;4.50;;
69410;SDS011;56604;48.652;9.194;2022-07-10T00:32:21;5.50;;;5.00;;
69410;SDS011;56604;48.652;9.194;2022-07-10T00:34:46;5.67;;;4.60;;
69410;SDS011;56604;48.652;9.194;2022-07-10T00:37:11;5.30;;;4.20;;
69410;SDS011;56604;48.652;9.194;2022-07-10T00:39:37;4.53;;;4.13;;
69410;SDS011;56604;48.652;9.194;2022-07-10T00:42:12;6.97;;;4.50;;
69410;SDS011;56604;48.652;9.194;2022-07-10T00:44:39;4.90;;;4.50;;
69410;SDS011;56604;48.652;9.194;2022-07-10T00:47:05;6.50;;;4.90;;
69410;SDS011;56604;48.652;9.194;2022-07-10T00:49:32;5.40;;;4.37;;
69410;SDS011;56604;48.652;9.194;2022-07-10T00:51:59;8.57;;;4.83;;
69410;SDS011;56604;48.652;9.194;2022-07-10T00:54:26;4.73;;;4.37;;
69410;SDS011;56604;48.652;9.194;2022-07-10T00:56:53;7.93;;;4.67;;
69410;SDS011;56604;48.652;9.194;2022-07-10T00:59:19;4.60;;;4.20;;
69410;SDS011;56604;48.652;9.194;2022-07-10T01:01:46;4.83;;;4.43;;
69410;SDS011;56604;48.652;9.194;2022-07-10T01:04:12;5.20;;;4.40;;
69410;SDS011;56604;48.652;9.194;2022-07-10T01:06:37;4.70;;;4.30;;
69410;SDS011;56604;48.652;9.194;2022-07-10T01:09:02;4.73;;;4.40;;
69410;SDS011;56604;48.652;9.194;2022-07-10T01:11:28;7.97;;;5.37;;
69410;SDS011;56604;48.652;9.194;2022-07-10T01:13:55;6.00;;;4.97;;
69410;SDS011;56604;48.652;9.194;2022-07-10T01:16:20;4.77;;;4.37;;
69410;SDS011;56604;48.652;9.194;2022-07-10T01:18:47;7.90;;;5.23;;
69410;SDS011;56604;48.652;9.194;2022-07-10T01:21:28;6.33;;;4.67;;
69410;SDS011;56604;48.652;9.194;2022-07-10T01:23:56;5.13;;;4.73;;
69410;SDS011;56604;48.652;9.194;2022-07-10T01:26:22;4.83;;;4.43;;
69410;SDS011;56604;48.652;9.194;2022-07-10T01:28:49;5.20;;;4.80;;
69410;SDS011;56604;48.652;9.194;2022-07-10T01:31:19;7.27;;;4.70;;
69410;SDS011;56604;48.652;9.194;2022-07-10T01:33:49;5.33;;;4.83;;
69410;SDS011;56604;48.652;9.194;2022-07-10T01:36:14;5.33;;;4.90;;
69410;SDS011;56604;48.652;9.194;2022-07-10T01:38:41;5.57;;;5.13;;
69410;SDS011;56604;48.652;9.194;2022-07-10T01:41:06;5.00;;;4.50;;
69410;SDS011;56604;48.652;9.194;2022-07-10T01:43:33;5.00;;;4.60;;
69410;SDS011;56604;48.652;9.194;2022-07-10T01:45:59;5.20;;;4.77;;
69410;SDS011;56604;48.652;9.194;2022-07-10T01:48:24;5.80;;;4.67;;
69410;SDS011;56604;48.652;9.194;2022-07-10T01:50:50;6.07;;;5.13;;
69410;SDS011;56604;48.652;9.194;2022-07-10T01:53:15;7.40;;;5.47;;
69410;SDS011;56604;48.652;9.194;2022-07-10T01:55:40;5.77;;;5.30;;
69410;SDS011;56604;48.652;9.194;2022-07-10T01:58:06;7.37;;;5.37;;
69410;SDS011;56604;48.652;9.194;2022-07-10T02:00:31;5.10;;;4.60;;
69410;SDS011;56604;48.652;9.194;2022-07-10T02:02:57;6.00;;;5.40;;
69410;SDS011;56604;48.652;9.194;2022-07-10T02:05:41;6.10;;;4.60;;
69410;SDS011;56604;48.652;9.194;2022-07-10T02:08:06;5.30;;;4.90;;
69410;SDS011;56604;48.652;9.194;2022-07-10T02:10:31;6.83;;;5.97;;
69410;SDS011;56604;48.652;9.194;2022-07-10T02:12:57;6.13;;;5.53;;
69410;SDS011;56604;48.652;9.194;2022-07-10T02:15:22;6.50;;;5.90;;
69410;SDS011;56604;48.652;9.194;2022-07-10T02:17:48;9.70;;;5.53;;
69410;SDS011;56604;48.652;9.194;2022-07-10T02:20:14;12.23;;;6.60;;
69410;SDS011;56604;48.652;9.194;2022-07-10T02:22:39;6.77;;;6.17;;
69410;SDS011;56604;48.652;9.194;2022-07-10T02:25:05;7.97;;;6.43;;
69410;SDS011;56604;48.652;9.194;2022-07-10T02:27:31;7.13;;;6.50;;
69410;SDS011;56604;48.652;9.194;2022-07-10T02:29:56;6.50;;;5.90;;
69410;SDS011;56604;48.652;9.194;2022-07-10T02:32:22;11.30;;;6.17;;
69410;SDS011;56604;48.652;9.194;2022-07-10T02:34:47;8.80;;;7.30;;
69410;SDS011;56604;48.652;9.194;2022-07-10T02:37:12;8.43;;;7.60;;
69410;SDS011;56604;48.652;9.194;2022-07-10T02:39:38;8.30;;;7.13;;
69410;SDS011;56604;48.652;9.194;2022-07-10T02:42:03;9.63;;;8.73;;
69410;SDS011;56604;48.652;9.194;2022-07-10T02:44:29;9.70;;;8.47;;
69410;SDS011;56604;48.652;9.194;2022-07-10T02:46:54;12.07;;;10.70;;
69410;SDS011;56604;48.652;9.194;2022-07-10T02:49:20;12.87;;;11.00;;
69410;SDS011;56604;48.652;9.194;2022-07-10T02:51:45;18.30;;;12.57;;
69410;SDS011;56604;48.652;9.194;2022-07-10T02:54:10;24.20;;;14.40;;
69410;SDS011;56604;48.652;9.194;2022-07-10T02:56:35;17.00;;;14.33;;
69410;SDS011;56604;48.652;9.194;2022-07-10T02:59:01;18.10;;;15.43;;
69410;SDS011;56604;48.652;9.194;2022-07-10T03:01:27;22.83;;;17.23;;
69410;SDS011;56604;48.652;9.194;2022-07-10T03:03:52;23.20;;;16.10;;
69410;SDS011;56604;48.652;9.194;2022-07-10T03:06:17;24.30;;;17.07;;
69410;SDS011;56604;48.652;9.194;2022-07-10T03:08:43;23.33;;;17.07;;
69410;SDS011;56604;48.652;9.194;2022-07-10T03:11:08;19.03;;;16.90;;
69410;SDS011;56604;48.652;9.194;2022-07-10T03:13:34;24.60;;;19.43;;
69410;SDS011;56604;48.652;9.194;2022-07-10T03:15:59;23.17;;;17.30;;
69410;SDS011;56604;48.652;9.194;2022-07-10T03:18:24;20.70;;;17.47;;
69410;SDS011;56604;48.652;9.194;2022-07-10T03:20:50;23.73;;;19.20;;
69410;SDS011;56604;48.652;9.194;2022-07-10T03:23:15;26.13;;;18.87;;
69410;SDS011;56604;48.652;9.194;2022-07-10T03:25:41;24.00;;;19.20;;
69410;SDS011;56604;48.652;9.194;2022-07-10T03:28:06;26.07;;;20.90;;
69410;SDS011;56604;48.652;9.194;2022-07-10T03:30:31;35.03;;;20.90;;
69410;SDS011;56604;48.652;9.194;2022-07-10T03:32:57;26.83;;;21.23;;
69410;SDS011;56604;48.652;9.194;2022-07-10T03:35:22;27.27;;;20.30;;
69410;SDS011;56604;48.652;9.194;2022-07-10T03:37:47;22.83;;;20.37;;
69410;SDS011;56604;48.652;9.194;2022-07-10T03:40:13;26.80;;;18.60;;
69410;SDS011;56604;48.652;9.194;2022-07-10T03:42:38;27.43;;;20.27;;
69410;SDS011;56604;48.652;9.194;2022-07-10T03:45:04;26.20;;;20.00;;
69410;SDS011;56604;48.652;9.194;2022-07-10T03:47:29;23.00;;;19.10;;
69410;SDS011;56604;48.652;9.194;2022-07-10T03:49:55;22.43;;;18.53;;
69410;SDS011;56604;48.652;9.194;2022-07-10T03:52:20;23.63;;;18.00;;
69410;SDS011;56604;48.652;9.194;2022-07-10T03:54:45;42.43;;;17.23;;
69410;SDS011;56604;48.652;9.194;2022-07-10T03:57:11;23.40;;;16.30;;
69410;SDS011;56604;48.652;9.194;2022-07-10T03:59:55;17.70;;;15.30;;
69410;SDS011;56604;48.652;9.194;2022-07-10T04:02:20;16.90;;;13.73;;
69410;SDS011;56604;48.652;9.194;2022-07-10T04:04:45;15.30;;;13.70;;
69410;SDS011;56604;48.652;9.194;2022-07-10T04:07:11;17.93;;;12.50;;
69410;SDS011;56604;48.652;9.194;2022-07-10T04:09:37;17.20;;;12.53;;
69410;SDS011;56604;48.652;9.194;2022-07-10T04:12:03;12.23;;;11.10;;
69410;SDS011;56604;48.652;9.194;2022-07-10T04:14:28;13.70;;;10.87;;
69410;SDS011;56604;48.652;9.194;2022-07-10T04:16:54;15.53;;;10.57;;
69410;SDS011;56604;48.652;9.194;2022-07-10T04:19:19;12.80;;;10.17;;
69410;SDS011;56604;48.652;9.194;2022-07-10T04:21:46;10.93;;;9.73;;
69410;SDS011;56604;48.652;9.194;2022-07-10T04:24:12;10.53;;;9.17;;
69410;SDS011;56604;48.652;9.194;2022-07-10T04:26:37;10.20;;;8.53;;
69410;SDS011;56604;48.652;9.194;2022-07-10T04:29:02;14.67;;;8.40;;
69410;SDS011;56604;48.652;9.194;2022-07-10T04:31:28;9.60;;;8.07;;
69410;SDS011;56604;48.652;9.194;2022-07-10T04:33:53;18.30;;;9.67;;
69410;SDS011;56604;48.652;9.194;2022-07-10T04:36:18;9.43;;;8.37;;
69410;SDS011;56604;48.652;9.194;2022-07-10T04:38:44;14.27;;;10.03;;
69410;SDS011;56604;48.652;9.194;2022-07-10T04:41:09;15.40;;;10.90;;
69410;SDS011;56604;48.652;9.194;2022-07-10T04:43:34;17.33;;;10.47;;
69410;SDS011;56604;48.652;9.194;2022-07-10T04:46:00;13.90;;;11.27;;
69410;SDS011;56604;48.652;9.194;2022-07-10T04:48:25;12.33;;;11.13;;
69410;SDS011;56604;48.652;9.194;2022-07-10T04:50:51;11.90;;;10.70;;
69410;SDS011;56604;48.652;9.194;2022-07-10T04:53:17;12.90;;;10.63;;
69410;SDS011;56604;48.652;9.194;2022-07-10T04:55:42;11.93;;;10.73;;
69410;SDS011;56604;48.652;9.194;2022-07-10T04:58:08;12.97;;;10.43;;
69410;SDS011;56604;48.652;9.194;2022-07-10T05:00:33;14.40;;;10.93;;
69410;SDS011;56604;48.652;9.194;2022-07-10T05:02:58;14.80;;;11.40;;
69410;SDS011;56604;48.652;9.194;2022-07-10T05:05:24;12.80;;;10.63;;
69410;SDS011;56604;48.652;9.194;2022-07-10T05:07:50;28.53;;;11.00;;
69410;SDS011;56604;48.652;9.194;2022-07-10T05:10:15;18.17;;;11.02;;
69410;SDS011;56604;48.652;9.194;2022-07-10T05:12:40;12.57;;;9.40;;
69410;SDS011;56604;48.652;9.194;2022-07-10T05:15:06;10.97;;;8.80;;
69410;SDS011;56604;48.652;9.194;2022-07-10T05:17:32;16.80;;;8.83;;
69410;SDS011;56604;48.652;9.194;2022-07-10T05:19:58;10.27;;;9.07;;
69410;SDS011;56604;48.652;9.194;2022-07-10T05:22:23;20.10;;;8.40;;
69410;SDS011;56604;48.652;9.194;2022-07-10T05:24:49;14.40;;;7.30;;
69410;SDS011;56604;48.652;9.194;2022-07-10T05:27:15;14.40;;;7.17;;
69410;SDS011;56604;48.652;9.194;2022-07-10T05:29:44;12.90;;;6.40;;
69410;SDS011;56604;48.652;9.194;2022-07-10T05:32:10;8.07;;;5.10;;
69410;SDS011;56604;48.652;9.194;2022-07-10T05:34:35;8.20;;;5.90;;
69410;SDS011;56604;48.652;9.194;2022-07-10T05:37:01;9.00;;;6.00;;
69410;SDS011;56604;48.652;9.194;2022-07-10T05:39:27;16.27;;;6.77;;
69410;SDS011;56604;48.652;9.194;2022-07-10T05:41:52;6.97;;;5.97;;
69410;SDS011;56604;48.652;9.194;2022-07-10T05:44:19;9.63;;;6.20;;
69410;SDS011;56604;48.652;9.194;2022-07-10T05:46:45;7.20;;;6.20;;
69410;SDS011;56604;48.652;9.194;2022-07-10T05:49:10;9.07;;;6.57;;
69410;SDS011;56604;48.652;9.194;2022-07-10T05:51:36;7.87;;;5.60;;
69410;SDS011;56604;48.652;9.194;2022-07-10T05:54:02;9.07;;;5.90;;
69410;SDS011;56604;48.652;9.194;2022-07-10T05:56:28;6.60;;;6.00;;
69410;SDS011;56604;48.652;9.194;2022-07-10T05:58:53;6.80;;;5.00;;
69410;SDS011;56604;48.652;9.194;2022-07-10T06:01:20;15.77;;;6.20;;
69410;SDS011;56604;48.652;9.194;2022-07-10T06:03:46;7.00;;;5.60;;
69410;SDS011;56604;48.652;9.194;2022-07-10T06:06:11;7.00;;;5.20;;
69410;SDS011;56604;48.652;9.194;2022-07-10T06:08:40;13.70;;;5.37;;
69410;SDS011;56604;48.652;9.194;2022-07-10T06:11:05;6.20;;;4.73;;
69410;SDS011;56604;48.652;9.194;2022-07-10T06:13:30;6.20;;;4.80;;
69410;SDS011;56604;48.652;9.194;2022-07-10T06:15:56;8.03;;;4.83;;
69410;SDS011;56604;48.652;9.194;2022-07-10T06:18:21;7.37;;;4.40;;
69410;SDS011;56604;48.652;9.194;2022-07-10T06:20:46;7.93;;;4.40;;
69410;SDS011;56604;48.652;9.194;2022-07-10T06:23:12;5.57;;;4.43;;
69410;SDS011;56604;48.652;9.194;2022-07-10T06:25:37;11.30;;;4.43;;
69410;SDS011;56604;48.652;9.194;2022-07-10T06:28:02;7.70;;;4.97;;
69410;SDS011;56604;48.652;9.194;2022-07-10T06:30:28;7.87;;;4.33;;
69410;SDS011;56604;48.652;9.194;2022-07-10T06:32:53;6.93;;;3.30;;
69410;SDS011;56604;48.652;9.194;2022-07-10T06:35:18;7.13;;;3.50;;
69410;SDS011;56604;48.652;9.194;2022-07-10T06:37:44;4.40;;;3.17;;
69410;SDS011;56604;48.652;9.194;2022-07-10T06:40:11;11.83;;;2.53;;
69410;SDS011;56604;48.652;9.194;2022-07-10T06:42:39;5.63;;;4.00;;
69410;SDS011;56604;48.652;9.194;2022-07-10T06:45:04;3.93;;;2.60;;
69410;SDS011;56604;48.652;9.194;2022-07-10T06:47:30;4.37;;;2.67;;
69410;SDS011;56604;48.652;9.194;2022-07-10T06:50:14;8.00;;;2.83;;
69410;SDS011;56604;48.652;9.194;2022-07-10T06:52:40;4.30;;;2.90;;
69410;SDS011;56604;48.652;9.194;2022-07-10T06:55:05;6.30;;;2.80;;
69410;SDS011;56604;48.652;9.194;2022-07-10T06:57:31;6.97;;;2.97;;
69410;SDS011;56604;48.652;9.194;2022-07-10T06:59:57;8.73;;;4.10;;
69410;SDS011;56604;48.652;9.194;2022-07-10T07:02:23;4.73;;;2.93;;
69410;SDS011;56604;48.652;9.194;2022-07-10T07:04:48;9.53;;;3.17;;
69410;SDS011;56604;48.652;9.194;2022-07-10T07:07:14;4.10;;;2.83;;
69410;SDS011;56604;48.652;9.194;2022-07-10T07:09:40;6.13;;;3.37;;
69410;SDS011;56604;48.652;9.194;2022-07-10T07:12:06;3.33;;;3.03;;
69410;SDS011;56604;48.652;9.194;2022-07-10T07:14:31;6.17;;;2.97;;
69410;SDS011;56604;48.652;9.194;2022-07-10T07:16:57;7.70;;;2.83;;
69410;SDS011;56604;48.652;9.194;2022-07-10T07:19:25;5.57;;;3.10;;
69410;SDS011;56604;48.652;9.194;2022-07-10T07:21:58;3.10;;;2.83;;
69410;SDS011;56604;48.652;9.194;2022-07-10T07:24:43;5.60;;;3.50;;
69410;SDS011;56604;48.652;9.194;2022-07-10T07:27:09;9.93;;;2.90;;
69410;SDS011;56604;48.652;9.194;2022-07-10T07:29:35;4.43;;;2.63;;
69410;SDS011;56604;48.652;9.194;2022-07-10T07:32:01;6.00;;;3.00;;
69410;SDS011;56604;48.652;9.194;2022-07-10T07:34:26;7.00;;;3.00;;
69410;SDS011;56604;48.652;9.194;2022-07-10T07:36:52;5.70;;;2.23;;
69410;SDS011;56604;48.652;9.194;2022-07-10T07:39:17;4.93;;;2.43;;
69410;SDS011;56604;48.652;9.194;2022-07-10T07:41:42;6.60;;;2.67;;
69410;SDS011;56604;48.652;9.194;2022-07-10T07:44:07;4.93;;;2.30;;
69410;SDS011;56604;48.652;9.194;2022-07-10T07:46:33;7.30;;;2.30;;
69410;SDS011;56604;48.652;9.194;2022-07-10T07:48:58;3.83;;;2.57;;
69410;SDS011;56604;48.652;9.194;2022-07-10T07:51:25;3.80;;;2.30;;
69410;SDS011;56604;48.652;9.194;2022-07-10T07:53:50;6.00;;;2.67;;
69410;SDS011;56604;48.652;9.194;2022-07-10T07:56:15;4.40;;;2.30;;
69410;SDS011;56604;48.652;9.194;2022-07-10T07:58:41;3.67;;;2.57;;
69410;SDS011;56604;48.652;9.194;2022-07-10T08:01:06;2.77;;;2.57;;
69410;SDS011;56604;48.652;9.194;2022-07-10T08:03:32;9.27;;;2.80;;
69410;SDS011;56604;48.652;9.194;2022-07-10T08:05:57;2.77;;;2.20;;
69410;SDS011;56604;48.652;9.194;2022-07-10T08:08:22;4.83;;;2.30;;
69410;SDS011;56604;48.652;9.194;2022-07-10T08:10:48;11.67;;;2.70;;
69410;SDS011;56604;48.652;9.194;2022-07-10T08:13:13;2.43;;;2.20;;
69410;SDS011;56604;48.652;9.194;2022-07-10T08:15:38;3.93;;;2.67;;
69410;SDS011;56604;48.652;9.194;2022-07-10T08:18:04;4.43;;;2.00;;
69410;SDS011;56604;48.652;9.194;2022-07-10T08:20:29;6.20;;;2.77;;
69410;SDS011;56604;48.652;9.194;2022-07-10T08:22:55;3.47;;;2.30;;
69410;SDS011;56604;48.652;9.194;2022-07-10T08:25:21;3.07;;;2.40;;
69410;SDS011;56604;48.652;9.194;2022-07-10T08:27:46;3.77;;;2.90;;
69410;SDS011;56604;48.652;9.194;2022-07-10T08:30:13;3.93;;;2.33;;
69410;SDS011;56604;48.652;9.194;2022-07-10T08:32:38;3.87;;;2.40;;
69410;SDS011;56604;48.652;9.194;2022-07-10T08:35:05;6.27;;;2.33;;
69410;SDS011;56604;48.652;9.194;2022-07-10T08:37:40;4.30;;;2.33;;
69410;SDS011;56604;48.652;9.194;2022-07-10T08:40:08;4.60;;;2.80;;
69410;SDS011;56604;48.652;9.194;2022-07-10T08:42:34;5.13;;;3.13;;
69410;SDS011;56604;48.652;9.194;2022-07-10T08:45:00;5.60;;;3.10;;
69410;SDS011;56604;48.652;9.194;2022-07-10T08:47:25;3.90;;;2.20;;
69410;SDS011;56604;48.652;9.194;2022-07-10T08:49:52;2.40;;;2.30;;
69410;SDS011;56604;48.652;9.194;2022-07-10T08:54:56;5.33;;;2.20;;
69410;SDS011;56604;48.652;9.194;2022-07-10T08:57:22;4.50;;;2.90;;
69410;SDS011;56604;48.652;9.194;2022-07-10T08:59:48;5.07;;;2.47;;
69410;SDS011;56604;48.652;9.194;2022-07-10T09:02:14;8.10;;;2.43;;
69410;SDS011;56604;48.652;9.194;2022-07-10T09:04:39;2.63;;;2.30;;
69410;SDS011;56604;48.652;9.194;2022-07-10T09:07:05;5.03;;;2.20;;
69410;SDS011;56604;48.652;9.194;2022-07-10T09:09:30;2.53;;;1.80;;
69410;SDS011;56604;48.652;9.194;2022-07-10T09:11:56;5.93;;;2.33;;
69410;SDS011;56604;48.652;9.194;2022-07-10T09:14:22;1.93;;;1.67;;
69410;SDS011;56604;48.652;9.194;2022-07-10T09:16:50;3.53;;;1.93;;
69410;SDS011;56604;48.652;9.194;2022-07-10T09:21:42;3.53;;;2.17;;
69410;SDS011;56604;48.652;9.194;2022-07-10T09:24:08;7.20;;;1.97;;
69410;SDS011;56604;48.652;9.194;2022-07-10T09:26:35;3.73;;;2.17;;
69410;SDS011;56604;48.652;9.194;2022-07-10T09:29:05;4.47;;;2.03;;
69410;SDS011;56604;48.652;9.194;2022-07-10T09:31:47;16.80;;;2.40;;
69410;SDS011;56604;48.652;9.194;2022-07-10T09:34:14;4.10;;;1.97;;
69410;SDS011;56604;48.652;9.194;2022-07-10T09:36:39;2.43;;;1.77;;
69410;SDS011;56604;48.652;9.194;2022-07-10T09:39:04;4.10;;;2.10;;
69410;SDS011;56604;48.652;9.194;2022-07-10T09:41:30;4.30;;;2.60;;
69410;SDS011;56604;48.652;9.194;2022-07-10T09:46:24;3.17;;;1.90;;
69410;SDS011;56604;48.652;9.194;2022-07-10T09:49:11;9.33;;;2.83;;
69410;SDS011;56604;48.652;9.194;2022-07-10T09:51:41;2.80;;;2.13;;
69410;SDS011;56604;48.652;9.194;2022-07-10T09:54:08;10.17;;;2.47;;
69410;SDS011;56604;48.652;9.194;2022-07-10T09:56:48;7.90;;;2.33;;
69410;SDS011;56604;48.652;9.194;2022-07-10T09:59:18;4.70;;;2.03;;
69410;SDS011;56604;48.652;9.194;2022-07-10T10:01:45;2.67;;;2.30;;
69410;SDS011;56604;48.652;9.194;2022-07-10T10:04:12;7.30;;;2.07;;
69410;SDS011;56604;48.652;9.194;2022-07-10T10:06:43;2.43;;;2.20;;
69410;SDS011;56604;48.652;9.194;2022-07-10T10:09:19;2.60;;;1.60;;
69410;SDS011;56604;48.652;9.194;2022-07-10T10:11:52;2.80;;;2.00;;
69410;SDS011;56604;48.652;9.194;2022-07-10T10:14:22;7.17;;;2.33;;
69410;SDS011;56604;48.652;9.194;2022-07-10T10:16:48;6.87;;;2.90;;
69410;SDS011;56604;48.652;9.194;2022-07-10T10:19:14;3.77;;;2.03;;
69410;SDS011;56604;48.652;9.194;2022-07-10T10:21:59;8.13;;;1.97;;
69410;SDS011;56604;48.652;9.194;2022-07-10T10:24:26;2.20;;;2.00;;
69410;SDS011;56604;48.652;9.194;2022-07-10T10:26:56;5.10;;;2.00;;
69410;SDS011;56604;48.652;9.194;2022-07-10T10:29:21;2.17;;;1.70;;
69410;SDS011;56604;48.652;9.194;2022-07-10T10:31:46;2.63;;;1.93;;
69410;SDS011;56604;48.652;9.194;2022-07-10T10:34:12;4.77;;;2.47;;
69410;SDS011;56604;48.652;9.194;2022-07-10T10:39:16;2.23;;;2.10;;
69410;SDS011;56604;48.652;9.194;2022-07-10T10:41:50;4.63;;;1.83;;
69410;SDS011;56604;48.652;9.194;2022-07-10T10:47:02;7.93;;;2.47;;
69410;SDS011;56604;48.652;9.194;2022-07-10T10:49:46;6.00;;;2.00;;
69410;SDS011;56604;48.652;9.194;2022-07-10T10:52:14;7.43;;;2.10;;
69410;SDS011;56604;48.652;9.194;2022-07-10T10:57:21;2.90;;;2.20;;
69410;SDS011;56604;48.652;9.194;2022-07-10T10:59:51;3.13;;;2.20;;
69410;SDS011;56604;48.652;9.194;2022-07-10T11:04:49;3.67;;;2.60;;
69410;SDS011;56604;48.652;9.194;2022-07-10T11:07:39;7.60;;;3.03;;
69410;SDS011;56604;48.652;9.194;2022-07-10T11:15:36;4.00;;;2.17;;
69410;SDS011;56604;48.652;9.194;2022-07-10T11:18:16;3.70;;;2.20;;
69410;SDS011;56604;48.652;9.194;2022-07-10T11:20:49;3.27;;;2.50;;
69410;SDS011;56604;48.652;9.194;2022-07-10T11:26:24;5.57;;;2.40;;
69410;SDS011;56604;48.652;9.194;2022-07-10T11:29:17;2.03;;;1.93;;
69410;SDS011;56604;48.652;9.194;2022-07-10T11:31:43;2.30;;;1.80;;
69410;SDS011;56604;48.652;9.194;2022-07-10T11:34:17;7.47;;;2.30;;
69410;SDS011;56604;48.652;9.194;2022-07-10T11:36:42;5.10;;;2.60;;
69410;SDS011;56604;48.652;9.194;2022-07-10T11:39:08;4.00;;;2.30;;
69410;SDS011;56604;48.652;9.194;2022-07-10T11:41:34;9.80;;;2.77;;
69410;SDS011;56604;48.652;9.194;2022-07-10T11:44:12;4.73;;;2.70;;
69410;SDS011;56604;48.652;9.194;2022-07-10T11:46:42;2.03;;;1.80;;
69410;SDS011;56604;48.652;9.194;2022-07-10T11:49:09;8.00;;;2.40;;
69410;SDS011;56604;48.652;9.194;2022-07-10T11:51:37;8.83;;;2.13;;
69410;SDS011;56604;48.652;9.194;2022-07-10T11:56:37;1.83;;;1.70;;
69410;SDS011;56604;48.652;9.194;2022-07-10T11:59:06;2.30;;;2.00;;
69410;SDS011;56604;48.652;9.194;2022-07-10T12:01:35;3.23;;;1.90;;
69410;SDS011;56604;48.652;9.194;2022-07-10T12:04:06;3.63;;;1.73;;
69410;SDS011;56604;48.652;9.194;2022-07-10T12:06:34;4.03;;;2.40;;
69410;SDS011;56604;48.652;9.194;2022-07-10T12:09:07;5.40;;;1.53;;
69410;SDS011;56604;48.652;9.194;2022-07-10T12:11:34;7.00;;;1.80;;
69410;SDS011;56604;48.652;9.194;2022-07-10T12:16:42;5.77;;;1.67;;
69410;SDS011;56604;48.652;9.194;2022-07-10T12:19:08;3.47;;;1.80;;
69410;SDS011;56604;48.652;9.194;2022-07-10T12:21:35;4.87;;;2.13;;
69410;SDS011;56604;48.652;9.194;2022-07-10T12:24:01;2.03;;;1.90;;
69410;SDS011;56604;48.652;9.194;2022-07-10T12:26:31;5.43;;;1.73;;
69410;SDS011;56604;48.652;9.194;2022-07-10T12:29:01;2.73;;;1.60;;
69410;SDS011;56604;48.652;9.194;2022-07-10T12:31:28;2.23;;;1.50;;
69410;SDS011;56604;48.652;9.194;2022-07-10T12:33:58;2.87;;;2.10;;
69410;SDS011;56604;48.652;9.194;2022-07-10T12:39:17;7.13;;;1.33;;
69410;SDS011;56604;48.652;9.194;2022-07-10T12:44:29;5.73;;;1.90;;
69410;SDS011;56604;48.652;9.194;2022-07-10T12:47:04;3.33;;;1.60;;
69410;SDS011;56604;48.652;9.194;2022-07-10T12:52:37;3.37;;;1.40;;
69410;SDS011;56604;48.652;9.194;2022-07-10T12:57:31;5.40;;;1.80;;
69410;SDS011;56604;48.652;9.194;2022-07-10T13:00:02;5.60;;;2.00;;
69410;SDS011;56604;48.652;9.194;2022-07-10T13:02:29;2.10;;;1.50;;
69410;SDS011;56604;48.652;9.194;2022-07-10T13:04:55;3.47;;;1.70;;
69410;SDS011;56604;48.652;9.194;2022-07-10T13:07:31;4.53;;;1.60;;
69410;SDS011;56604;48.652;9.194;2022-07-10T13:10:00;2.57;;;1.40;;
69410;SDS011;56604;48.652;9.194;2022-07-10T13:12:27;1.83;;;1.30;;
69410;SDS011;56604;48.652;9.194;2022-07-10T13:14:52;3.40;;;1.73;;
69410;SDS011;56604;48.652;9.194;2022-07-10T13:17:18;1.33;;;1.20;;
69410;SDS011;56604;48.652;9.194;2022-07-10T13:19:43;6.60;;;1.40;;
69410;SDS011;56604;48.652;9.194;2022-07-10T13:22:08;2.40;;;1.37;;
69410;SDS011;56604;48.652;9.194;2022-07-10T13:24:34;6.80;;;1.73;;
69410;SDS011;56604;48.652;9.194;2022-07-10T13:26:59;3.03;;;1.30;;
69410;SDS011;56604;48.652;9.194;2022-07-10T13:29:24;11.43;;;1.60;;
69410;SDS011;56604;48.652;9.194;2022-07-10T13:31:50;3.23;;;1.50;;
69410;SDS011;56604;48.652;9.194;2022-07-10T13:34:15;3.17;;;1.60;;
69410;SDS011;56604;48.652;9.194;2022-07-10T13:36:40;4.40;;;1.90;;
69410;SDS011;56604;48.652;9.194;2022-07-10T13:39:06;3.20;;;1.33;;
69410;SDS011;56604;48.652;9.194;2022-07-10T13:41:31;4.93;;;1.50;;
69410;SDS011;56604;48.652;9.194;2022-07-10T13:43:56;2.47;;;1.27;;
69410;SDS011;56604;48.652;9.194;2022-07-10T13:46:22;2.70;;;1.63;;
69410;SDS011;56604;48.652;9.194;2022-07-10T13:48:47;1.63;;;1.40;;
69410;SDS011;56604;48.652;9.194;2022-07-10T13:51:12;3.20;;;1.20;;
69410;SDS011;56604;48.652;9.194;2022-07-10T13:53:38;1.90;;;1.67;;
69410;SDS011;56604;48.652;9.194;2022-07-10T13:56:07;1.43;;;1.10;;
69410;SDS011;56604;48.652;9.194;2022-07-10T13:58:33;1.47;;;1.27;;
69410;SDS011;56604;48.652;9.194;2022-07-10T14:00:59;3.57;;;1.33;;
69410;SDS011;56604;48.652;9.194;2022-07-10T14:03:25;1.93;;;1.30;;
69410;SDS011;56604;48.652;9.194;2022-07-10T14:05:51;1.67;;;1.30;;
69410;SDS011;56604;48.652;9.194;2022-07-10T14:08:16;1.53;;;1.37;;
69410;SDS011;56604;48.652;9.194;2022-07-10T14:10:41;4.30;;;1.40;;
69410;SDS011;56604;48.652;9.194;2022-07-10T14:13:07;1.43;;;1.00;;
69410;SDS011;56604;48.652;9.194;2022-07-10T14:15:34;2.20;;;1.00;;
69410;SDS011;56604;48.652;9.194;2022-07-10T14:18:00;6.07;;;1.50;;
69410;SDS011;56604;48.652;9.194;2022-07-10T14:20:26;2.93;;;1.30;;
69410;SDS011;56604;48.652;9.194;2022-07-10T14:22:51;2.63;;;1.30;;
69410;SDS011;56604;48.652;9.194;2022-07-10T14:25:16;7.27;;;1.33;;
69410;SDS011;56604;48.652;9.194;2022-07-10T14:27:42;6.03;;;1.33;;
69410;SDS011;56604;48.652;9.194;2022-07-10T14:30:07;3.77;;;1.33;;
69410;SDS011;56604;48.652;9.194;2022-07-10T14:32:34;2.83;;;1.60;;
69410;SDS011;56604;48.652;9.194;2022-07-10T14:34:59;1.27;;;1.10;;
69410;SDS011;56604;48.652;9.194;2022-07-10T14:37:24;3.97;;;1.30;;
69410;SDS011;56604;48.652;9.194;2022-07-10T14:39:50;4.50;;;1.30;;
69410;SDS011;56604;48.652;9.194;2022-07-10T14:42:15;3.63;;;1.40;;
69410;SDS011;56604;48.652;9.194;2022-07-10T14:44:41;4.70;;;1.30;;
69410;SDS011;56604;48.652;9.194;2022-07-10T14:47:08;4.90;;;1.30;;
69410;SDS011;56604;48.652;9.194;2022-07-10T14:49:34;10.03;;;1.33;;
69410;SDS011;56604;48.652;9.194;2022-07-10T14:51:59;2.23;;;1.30;;
69410;SDS011;56604;48.652;9.194;2022-07-10T14:54:25;2.20;;;1.30;;
69410;SDS011;56604;48.652;9.194;2022-07-10T14:56:51;3.57;;;1.70;;
69410;SDS011;56604;48.652;9.194;2022-07-10T14:59:16;0.93;;;0.90;;
69410;SDS011;56604;48.652;9.194;2022-07-10T15:01:42;1.20;;;1.10;;
69410;SDS011;56604;48.652;9.194;2022-07-10T15:04:07;2.10;;;1.30;;
69410;SDS011;56604;48.652;9.194;2022-07-10T15:06:33;1.70;;;1.20;;
69410;SDS011;56604;48.652;9.194;2022-07-10T15:08:58;3.30;;;1.30;;
69410;SDS011;56604;48.652;9.194;2022-07-10T15:11:23;2.83;;;1.07;;
69410;SDS011;56604;48.652;9.194;2022-07-10T15:13:51;2.50;;;1.30;;
69410;SDS011;56604;48.652;9.194;2022-07-10T15:16:18;1.77;;;0.90;;
69410;SDS011;56604;48.652;9.194;2022-07-10T15:18:43;2.70;;;1.40;;
69410;SDS011;56604;48.652;9.194;2022-07-10T15:21:09;4.07;;;1.33;;
69410;SDS011;56604;48.652;9.194;2022-07-10T15:23:36;10.23;;;1.57;;